Gibbsboro, New Jersey
Current Conditions -  °F | °C
As of 3:54 PM on Tuesday 21 Oct 2014 (Local Time) from KVAY Reporting Station
Scattered Clouds Scattered Clouds  
Wind Chill: 69°   Ceiling: Unl
Heat Index: 69°   Visibility: 10mi
Dew Point: 48°   Wind: 0mph
Humidity: 47%   Direction: NA
Pressure: 29.8"   Gusts: NA
Location:  39.84°N, 74.96°W
Report Text: KVAY 211954Z AUTO 00000KT 10SM FEW050 SCT120 21/09 A2980 RMK AO2 SLP091 T02060089
Loading
Personal Weather Stations






























Interactive Weather Map
Tropical Storm Tracking
New forecast layout! Learn more

10-Day Weather Forecast

Advertisements
Track Severe Weather on mobile